sensor_id;sensor_type;location;lat;lon;timestamp;pressure;altitude;pressure_sealevel;temperature;humidity
12973;BME280;6551;51.056;9.466;2023-04-25T00:00:36;96813.75;;;13.84;59.50
12973;BME280;6551;51.056;9.466;2023-04-25T00:03:04;96808.06;;;13.71;59.31
12973;BME280;6551;51.056;9.466;2023-04-25T00:05:31;96810.53;;;13.82;59.51
12973;BME280;6551;51.056;9.466;2023-04-25T00:07:57;96808.22;;;13.49;56.86
12973;BME280;6551;51.056;9.466;2023-04-25T00:10:23;96802.81;;;13.44;59.61
12973;BME280;6551;51.056;9.466;2023-04-25T00:12:50;96806.25;;;13.39;58.94
12973;BME280;6551;51.056;9.466;2023-04-25T00:15:18;96800.41;;;13.42;59.36
12973;BME280;6551;51.056;9.466;2023-04-25T00:17:43;96804.25;;;13.20;58.37
12973;BME280;6551;51.056;9.466;2023-04-25T00:20:11;96807.91;;;13.09;60.29
12973;BME280;6551;51.056;9.466;2023-04-25T00:22:38;96811.78;;;12.96;59.25
12973;BME280;6551;51.056;9.466;2023-04-25T00:25:05;96798.78;;;12.78;60.81
12973;BME280;6551;51.056;9.466;2023-04-25T00:27:32;96798.91;;;12.35;60.53
12973;BME280;6551;51.056;9.466;2023-04-25T00:29:58;96806.84;;;11.86;61.11
12973;BME280;6551;51.056;9.466;2023-04-25T00:32:25;96802.78;;;11.62;62.41
12973;BME280;6551;51.056;9.466;2023-04-25T00:34:50;96808.78;;;11.36;62.46
12973;BME280;6551;51.056;9.466;2023-04-25T00:37:16;96804.66;;;11.45;64.06
12973;BME280;6551;51.056;9.466;2023-04-25T00:39:42;96808.97;;;11.46;63.14
12973;BME280;6551;51.056;9.466;2023-04-25T00:42:09;96799.84;;;11.63;63.65
12973;BME280;6551;51.056;9.466;2023-04-25T00:44:35;96803.09;;;11.10;63.49
12973;BME280;6551;51.056;9.466;2023-04-25T00:47:02;96804.47;;;10.96;64.23
12973;BME280;6551;51.056;9.466;2023-04-25T00:49:29;96817.59;;;10.70;64.38
12973;BME280;6551;51.056;9.466;2023-04-25T00:51:56;96809.38;;;10.71;65.72
12973;BME280;6551;51.056;9.466;2023-04-25T00:54:22;96813.63;;;10.72;65.02
12973;BME280;6551;51.056;9.466;2023-04-25T00:56:48;96811.25;;;11.04;65.09
12973;BME280;6551;51.056;9.466;2023-04-25T00:59:14;96815.56;;;11.60;65.64
12973;BME280;6551;51.056;9.466;2023-04-25T01:01:42;96794.78;;;11.62;63.64
12973;BME280;6551;51.056;9.466;2023-04-25T01:04:09;96803.47;;;11.91;63.27
12973;BME280;6551;51.056;9.466;2023-04-25T01:06:35;96799.38;;;12.05;62.20
12973;BME280;6551;51.056;9.466;2023-04-25T01:09:02;96804.56;;;11.95;62.16
12973;BME280;6551;51.056;9.466;2023-04-25T01:11:28;96809.19;;;11.99;62.38
12973;BME280;6551;51.056;9.466;2023-04-25T01:13:53;96809.41;;;11.98;63.03
12973;BME280;6551;51.056;9.466;2023-04-25T01:16:20;96809.16;;;12.74;64.18
12973;BME280;6551;51.056;9.466;2023-04-25T01:18:49;96815.47;;;12.63;59.51
12973;BME280;6551;51.056;9.466;2023-04-25T01:21:16;96817.78;;;12.81;60.60
12973;BME280;6551;51.056;9.466;2023-04-25T01:23:42;96815.31;;;13.02;59.46
12973;BME280;6551;51.056;9.466;2023-04-25T01:26:10;96819.78;;;13.23;59.39
12973;BME280;6551;51.056;9.466;2023-04-25T01:28:38;96826.03;;;12.80;58.54
12973;BME280;6551;51.056;9.466;2023-04-25T01:31:06;96815.22;;;12.16;61.38
12973;BME280;6551;51.056;9.466;2023-04-25T01:33:33;96824.53;;;11.92;61.63
12973;BME280;6551;51.056;9.466;2023-04-25T01:35:59;96812.19;;;11.86;63.12
12973;BME280;6551;51.056;9.466;2023-04-25T01:38:25;96813.44;;;12.22;64.81
12973;BME280;6551;51.056;9.466;2023-04-25T01:40:53;96813.50;;;12.05;61.96
12973;BME280;6551;51.056;9.466;2023-04-25T01:43:21;96815.84;;;11.63;62.02
12973;BME280;6551;51.056;9.466;2023-04-25T01:45:50;96818.22;;;11.77;63.63
12973;BME280;6551;51.056;9.466;2023-04-25T01:48:17;96821.56;;;11.89;63.92
12973;BME280;6551;51.056;9.466;2023-04-25T01:50:44;96813.66;;;11.94;62.28
12973;BME280;6551;51.056;9.466;2023-04-25T01:53:11;96813.50;;;12.27;62.46
12973;BME280;6551;51.056;9.466;2023-04-25T01:55:39;96821.31;;;12.33;61.82
12973;BME280;6551;51.056;9.466;2023-04-25T01:58:05;96822.31;;;12.06;60.51
12973;BME280;6551;51.056;9.466;2023-04-25T02:00:36;96826.28;;;11.65;60.72
12973;BME280;6551;51.056;9.466;2023-04-25T02:03:06;96806.97;;;11.74;62.38
12973;BME280;6551;51.056;9.466;2023-04-25T02:05:39;96807.56;;;11.77;61.93
12973;BME280;6551;51.056;9.466;2023-04-25T02:08:06;96809.19;;;11.99;62.63
12973;BME280;6551;51.056;9.466;2023-04-25T02:10:33;96802.66;;;12.12;63.07
12973;BME280;6551;51.056;9.466;2023-04-25T02:13:00;96810.41;;;11.92;61.60
12973;BME280;6551;51.056;9.466;2023-04-25T02:15:27;96805.78;;;11.65;62.67
12973;BME280;6551;51.056;9.466;2023-04-25T02:17:54;96807.94;;;11.68;62.97
12973;BME280;6551;51.056;9.466;2023-04-25T02:20:24;96798.31;;;11.84;62.39
12973;BME280;6551;51.056;9.466;2023-04-25T02:22:51;96804.03;;;11.54;61.99
12973;BME280;6551;51.056;9.466;2023-04-25T02:25:19;96800.53;;;10.99;63.12
12973;BME280;6551;51.056;9.466;2023-04-25T02:27:47;96801.63;;;11.03;63.47
12973;BME280;6551;51.056;9.466;2023-04-25T02:30:13;96814.81;;;11.09;64.15
12973;BME280;6551;51.056;9.466;2023-04-25T02:32:39;96806.00;;;10.92;64.87
12973;BME280;6551;51.056;9.466;2023-04-25T02:35:06;96807.22;;;11.01;65.08
12973;BME280;6551;51.056;9.466;2023-04-25T02:37:37;96806.38;;;10.68;64.30
12973;BME280;6551;51.056;9.466;2023-04-25T02:40:05;96801.09;;;10.56;65.28
12973;BME280;6551;51.056;9.466;2023-04-25T02:42:31;96792.88;;;10.41;66.02
12973;BME280;6551;51.056;9.466;2023-04-25T02:44:58;96795.31;;;10.59;66.01
12973;BME280;6551;51.056;9.466;2023-04-25T02:47:25;96795.66;;;10.79;65.31
12973;BME280;6551;51.056;9.466;2023-04-25T02:49:50;96807.25;;;10.56;65.70
12973;BME280;6551;51.056;9.466;2023-04-25T02:52:16;96799.53;;;10.55;65.81
12973;BME280;6551;51.056;9.466;2023-04-25T02:54:42;96798.69;;;10.54;65.92
12973;BME280;6551;51.056;9.466;2023-04-25T02:57:07;96795.91;;;10.33;65.50
12973;BME280;6551;51.056;9.466;2023-04-25T02:59:34;96798.38;;;10.23;66.08
12973;BME280;6551;51.056;9.466;2023-04-25T03:02:00;96789.06;;;9.97;67.17
12973;BME280;6551;51.056;9.466;2023-04-25T03:04:27;96798.72;;;10.26;67.24
12973;BME280;6551;51.056;9.466;2023-04-25T03:06:53;96794.47;;;10.14;66.21
12973;BME280;6551;51.056;9.466;2023-04-25T03:09:20;96801.94;;;10.28;66.08
12973;BME280;6551;51.056;9.466;2023-04-25T03:11:47;96815.78;;;10.58;66.03
12973;BME280;6551;51.056;9.466;2023-04-25T03:14:13;96807.03;;;10.75;66.50
12973;BME280;6551;51.056;9.466;2023-04-25T03:16:39;96814.72;;;11.21;65.79
12973;BME280;6551;51.056;9.466;2023-04-25T03:19:05;96816.44;;;12.04;66.04
12973;BME280;6551;51.056;9.466;2023-04-25T03:21:33;96814.22;;;12.71;63.40
12973;BME280;6551;51.056;9.466;2023-04-25T03:24:01;96815.44;;;13.17;64.96
12973;BME280;6551;51.056;9.466;2023-04-25T03:26:29;96821.28;;;13.87;62.63
12973;BME280;6551;51.056;9.466;2023-04-25T03:28:56;96824.22;;;14.43;59.56
12973;BME280;6551;51.056;9.466;2023-04-25T03:31:21;96816.94;;;14.38;56.87
12973;BME280;6551;51.056;9.466;2023-04-25T03:33:47;96820.06;;;14.15;55.94
12973;BME280;6551;51.056;9.466;2023-04-25T03:36:14;96816.16;;;14.38;57.54
12973;BME280;6551;51.056;9.466;2023-04-25T03:38:41;96817.09;;;14.17;55.53
12973;BME280;6551;51.056;9.466;2023-04-25T03:41:08;96821.53;;;14.43;57.71
12973;BME280;6551;51.056;9.466;2023-04-25T03:43:35;96823.28;;;14.17;55.39
12973;BME280;6551;51.056;9.466;2023-04-25T03:46:03;96822.28;;;14.33;56.97
12973;BME280;6551;51.056;9.466;2023-04-25T03:48:30;96821.63;;;14.11;54.77
12973;BME280;6551;51.056;9.466;2023-04-25T03:50:56;96820.06;;;13.63;55.36
12973;BME280;6551;51.056;9.466;2023-04-25T03:53:22;96815.09;;;13.40;56.47
12973;BME280;6551;51.056;9.466;2023-04-25T03:55:47;96825.72;;;13.03;58.29
12973;BME280;6551;51.056;9.466;2023-04-25T03:58:15;96812.53;;;13.18;58.43
12973;BME280;6551;51.056;9.466;2023-04-25T04:00:42;96814.94;;;13.20;59.09
12973;BME280;6551;51.056;9.466;2023-04-25T04:03:08;96821.16;;;13.30;57.87
12973;BME280;6551;51.056;9.466;2023-04-25T04:05:34;96818.88;;;13.07;57.96
12973;BME280;6551;51.056;9.466;2023-04-25T04:08:01;96822.75;;;13.00;60.32
12973;BME280;6551;51.056;9.466;2023-04-25T04:10:29;96824.44;;;12.79;58.81
12973;BME280;6551;51.056;9.466;2023-04-25T04:12:58;96822.25;;;13.03;58.85
12973;BME280;6551;51.056;9.466;2023-04-25T04:15:24;96822.25;;;13.03;57.90
12973;BME280;6551;51.056;9.466;2023-04-25T04:17:50;96827.50;;;13.19;57.87
12973;BME280;6551;51.056;9.466;2023-04-25T04:20:16;96827.72;;;13.13;58.51
12973;BME280;6551;51.056;9.466;2023-04-25T04:22:42;96829.41;;;12.65;58.11
12973;BME280;6551;51.056;9.466;2023-04-25T04:25:08;96828.41;;;12.50;59.67
12973;BME280;6551;51.056;9.466;2023-04-25T04:27:34;96819.50;;;12.39;59.84
12973;BME280;6551;51.056;9.466;2023-04-25T04:30:02;96831.88;;;12.23;61.72
12973;BME280;6551;51.056;9.466;2023-04-25T04:32:29;96833.69;;;11.96;60.24
12973;BME280;6551;51.056;9.466;2023-04-25T04:34:56;96839.28;;;11.61;61.41
12973;BME280;6551;51.056;9.466;2023-04-25T04:37:22;96835.84;;;11.28;63.09
12973;BME280;6551;51.056;9.466;2023-04-25T04:39:48;96852.72;;;11.33;64.49
12973;BME280;6551;51.056;9.466;2023-04-25T04:42:13;96852.41;;;11.46;64.13
12973;BME280;6551;51.056;9.466;2023-04-25T04:44:41;96846.16;;;11.91;63.67
12973;BME280;6551;51.056;9.466;2023-04-25T04:47:09;96850.78;;;12.22;61.88
12973;BME280;6551;51.056;9.466;2023-04-25T04:49:36;96853.38;;;12.60;61.63
12973;BME280;6551;51.056;9.466;2023-04-25T04:52:01;96858.97;;;12.59;60.05
12973;BME280;6551;51.056;9.466;2023-04-25T04:54:28;96861.81;;;12.74;60.12
12973;BME280;6551;51.056;9.466;2023-04-25T04:56:54;96867.56;;;12.87;59.95
12973;BME280;6551;51.056;9.466;2023-04-25T04:59:21;96866.59;;;12.99;58.67
12973;BME280;6551;51.056;9.466;2023-04-25T05:01:48;96875.09;;;13.22;59.32
12973;BME280;6551;51.056;9.466;2023-04-25T05:04:15;96865.25;;;12.74;59.19
12973;BME280;6551;51.056;9.466;2023-04-25T05:06:41;96868.84;;;12.37;60.05
12973;BME280;6551;51.056;9.466;2023-04-25T05:09:07;96863.63;;;11.82;60.64
12973;BME280;6551;51.056;9.466;2023-04-25T05:11:33;96875.19;;;11.70;62.69
12973;BME280;6551;51.056;9.466;2023-04-25T05:13:59;96878.31;;;11.67;63.49
12973;BME280;6551;51.056;9.466;2023-04-25T05:16:25;96869.44;;;11.62;63.78
12973;BME280;6551;51.056;9.466;2023-04-25T05:18:51;96877.88;;;11.70;62.11
12973;BME280;6551;51.056;9.466;2023-04-25T05:21:17;96878.16;;;11.91;62.35
12973;BME280;6551;51.056;9.466;2023-04-25T05:23:44;96874.69;;;11.90;62.76
12973;BME280;6551;51.056;9.466;2023-04-25T05:26:10;96884.06;;;11.76;62.94
12973;BME280;6551;51.056;9.466;2023-04-25T05:28:40;96875.72;;;11.89;63.51
12973;BME280;6551;51.056;9.466;2023-04-25T05:31:07;96886.13;;;12.07;64.18
12973;BME280;6551;51.056;9.466;2023-04-25T05:33:34;96885.25;;;12.02;63.05
12973;BME280;6551;51.056;9.466;2023-04-25T05:36:00;96894.72;;;11.59;63.36
12973;BME280;6551;51.056;9.466;2023-04-25T05:38:26;96893.59;;;11.39;63.97
12973;BME280;6551;51.056;9.466;2023-04-25T05:40:51;96891.50;;;11.57;64.00
12973;BME280;6551;51.056;9.466;2023-04-25T05:43:18;96895.06;;;11.46;63.32
12973;BME280;6551;51.056;9.466;2023-04-25T05:45:45;96897.00;;;11.51;64.47
12973;BME280;6551;51.056;9.466;2023-04-25T05:48:11;96902.59;;;11.49;64.35
12973;BME280;6551;51.056;9.466;2023-04-25T05:50:36;96908.97;;;11.82;64.09
12973;BME280;6551;51.056;9.466;2023-04-25T05:53:03;96896.69;;;12.02;63.52
12973;BME280;6551;51.056;9.466;2023-04-25T05:55:29;96903.03;;;11.96;62.49
12973;BME280;6551;51.056;9.466;2023-04-25T05:57:54;96904.28;;;11.72;63.48
12973;BME280;6551;51.056;9.466;2023-04-25T06:00:21;96911.53;;;11.93;64.12
12973;BME280;6551;51.056;9.466;2023-04-25T06:02:49;96913.09;;;11.72;64.74
12973;BME280;6551;51.056;9.466;2023-04-25T06:05:15;96911.97;;;11.52;63.67
12973;BME280;6551;51.056;9.466;2023-04-25T06:07:42;96920.91;;;11.46;65.28
12973;BME280;6551;51.056;9.466;2023-04-25T06:10:09;96921.31;;;11.54;65.84
12973;BME280;6551;51.056;9.466;2023-04-25T06:12:35;96920.28;;;11.72;65.60
12973;BME280;6551;51.056;9.466;2023-04-25T06:15:01;96923.41;;;11.86;64.63
12973;BME280;6551;51.056;9.466;2023-04-25T06:17:26;96928.06;;;11.73;64.10
12973;BME280;6551;51.056;9.466;2023-04-25T06:19:52;96936.00;;;12.07;64.38
12973;BME280;6551;51.056;9.466;2023-04-25T06:22:19;96931.00;;;12.54;63.79
12973;BME280;6551;51.056;9.466;2023-04-25T06:24:46;96932.63;;;12.76;61.50
12973;BME280;6551;51.056;9.466;2023-04-25T06:27:11;96933.09;;;13.22;61.39
12973;BME280;6551;51.056;9.466;2023-04-25T06:29:37;96930.38;;;13.17;59.49
12973;BME280;6551;51.056;9.466;2023-04-25T06:32:04;96930.41;;;12.95;61.22
12973;BME280;6551;51.056;9.466;2023-04-25T06:34:31;96939.34;;;13.06;61.61
12973;BME280;6551;51.056;9.466;2023-04-25T06:36:57;96940.94;;;12.58;60.32
12973;BME280;6551;51.056;9.466;2023-04-25T06:39:24;96936.84;;;12.51;61.88
12973;BME280;6551;51.056;9.466;2023-04-25T06:41:51;96950.03;;;12.19;62.87
12973;BME280;6551;51.056;9.466;2023-04-25T06:44:16;96944.59;;;11.92;63.22
12973;BME280;6551;51.056;9.466;2023-04-25T06:46:43;96953.75;;;11.80;64.45
12973;BME280;6551;51.056;9.466;2023-04-25T06:49:09;96950.28;;;11.79;64.32
12973;BME280;6551;51.056;9.466;2023-04-25T06:51:35;96960.44;;;11.99;64.62
12973;BME280;6551;51.056;9.466;2023-04-25T06:54:01;96965.97;;;12.14;62.65
12973;BME280;6551;51.056;9.466;2023-04-25T06:56:27;96964.75;;;12.60;63.77
12973;BME280;6551;51.056;9.466;2023-04-25T06:58:57;96970.03;;;12.76;62.51
12973;BME280;6551;51.056;9.466;2023-04-25T07:01:24;96969.53;;;13.28;62.77
12973;BME280;6551;51.056;9.466;2023-04-25T07:03:50;96973.97;;;13.76;60.81
12973;BME280;6551;51.056;9.466;2023-04-25T07:06:17;96977.09;;;13.99;60.16
12973;BME280;6551;51.056;9.466;2023-04-25T07:08:44;96975.94;;;14.27;59.70
12973;BME280;6551;51.056;9.466;2023-04-25T07:11:10;96977.38;;;14.03;58.96
12973;BME280;6551;51.056;9.466;2023-04-25T07:13:35;96976.72;;;14.23;60.04
12973;BME280;6551;51.056;9.466;2023-04-25T07:16:02;96980.88;;;14.40;59.19
12973;BME280;6551;51.056;9.466;2023-04-25T07:18:29;96981.34;;;14.79;58.37
12973;BME280;6551;51.056;9.466;2023-04-25T07:20:57;96984.78;;;14.75;56.52
12973;BME280;6551;51.056;9.466;2023-04-25T07:23:23;96988.69;;;15.09;59.28
12973;BME280;6551;51.056;9.466;2023-04-25T07:25:49;96994.13;;;15.34;56.93
12973;BME280;6551;51.056;9.466;2023-04-25T07:28:16;96988.81;;;15.74;56.04
12973;BME280;6551;51.056;9.466;2023-04-25T07:30:43;96988.56;;;15.81;54.98
12973;BME280;6551;51.056;9.466;2023-04-25T07:33:09;96986.06;;;15.34;53.98
12973;BME280;6551;51.056;9.466;2023-04-25T07:35:35;96991.75;;;15.53;54.79
12973;BME280;6551;51.056;9.466;2023-04-25T07:38:04;96986.94;;;15.55;55.40
12973;BME280;6551;51.056;9.466;2023-04-25T07:40:33;96995.03;;;15.85;55.43
12973;BME280;6551;51.056;9.466;2023-04-25T07:42:59;96997.97;;;15.94;53.97
12973;BME280;6551;51.056;9.466;2023-04-25T07:45:26;96994.75;;;15.92;52.98
12973;BME280;6551;51.056;9.466;2023-04-25T07:47:53;96995.00;;;15.95;52.52
12973;BME280;6551;51.056;9.466;2023-04-25T07:50:19;97006.56;;;16.21;54.18
12973;BME280;6551;51.056;9.466;2023-04-25T07:52:45;97000.91;;;15.67;51.34
12973;BME280;6551;51.056;9.466;2023-04-25T07:55:11;97003.31;;;15.89;54.56
12973;BME280;6551;51.056;9.466;2023-04-25T07:57:37;97011.38;;;15.89;53.63
12973;BME280;6551;51.056;9.466;2023-04-25T08:00:05;97013.25;;;16.08;54.03
12973;BME280;6551;51.056;9.466;2023-04-25T08:02:35;97008.19;;;16.02;52.60
12973;BME280;6551;51.056;9.466;2023-04-25T08:05:02;97008.16;;;15.92;53.69
12973;BME280;6551;51.056;9.466;2023-04-25T08:07:28;97007.38;;;15.96;53.07
12973;BME280;6551;51.056;9.466;2023-04-25T08:09:54;97021.59;;;15.97;53.41
12973;BME280;6551;51.056;9.466;2023-04-25T08:12:20;97028.28;;;16.19;53.24
12973;BME280;6551;51.056;9.466;2023-04-25T08:14:47;97024.00;;;16.33;53.79
12973;BME280;6551;51.056;9.466;2023-04-25T08:17:13;97026.13;;;16.42;52.77
12973;BME280;6551;51.056;9.466;2023-04-25T08:19:39;97021.00;;;16.50;53.14
12973;BME280;6551;51.056;9.466;2023-04-25T08:22:04;97021.56;;;16.57;51.76
12973;BME280;6551;51.056;9.466;2023-04-25T08:24:32;97029.84;;;16.81;52.97
12973;BME280;6551;51.056;9.466;2023-04-25T08:26:59;97033.78;;;17.04;52.67
12973;BME280;6551;51.056;9.466;2023-04-25T08:29:25;97034.84;;;17.08;50.92
12973;BME280;6551;51.056;9.466;2023-04-25T08:31:51;97041.41;;;16.76;50.82
12973;BME280;6551;51.056;9.466;2023-04-25T08:34:19;97039.81;;;16.75;52.84
12973;BME280;6551;51.056;9.466;2023-04-25T08:36:47;97039.69;;;17.06;53.10
12973;BME280;6551;51.056;9.466;2023-04-25T08:39:13;97044.69;;;17.37;50.95
12973;BME280;6551;51.056;9.466;2023-04-25T08:41:41;97053.75;;;17.51;50.38
12973;BME280;6551;51.056;9.466;2023-04-25T08:44:11;97058.47;;;17.26;47.91
12973;BME280;6551;51.056;9.466;2023-04-25T08:46:39;97061.19;;;17.21;48.08
12973;BME280;6551;51.056;9.466;2023-04-25T08:49:09;97055.63;;;16.87;47.97
12973;BME280;6551;51.056;9.466;2023-04-25T08:51:39;97061.28;;;16.90;50.35
12973;BME280;6551;51.056;9.466;2023-04-25T08:54:11;97068.81;;;16.83;49.73
12973;BME280;6551;51.056;9.466;2023-04-25T08:56:43;97079.50;;;17.09;50.66
12973;BME280;6551;51.056;9.466;2023-04-25T08:59:12;97075.44;;;17.16;48.33
12973;BME280;6551;51.056;9.466;2023-04-25T09:01:40;97070.59;;;17.23;47.46
12973;BME280;6551;51.056;9.466;2023-04-25T09:04:07;97067.97;;;17.67;48.10
12973;BME280;6551;51.056;9.466;2023-04-25T09:06:34;97069.91;;;17.51;45.56
12973;BME280;6551;51.056;9.466;2023-04-25T09:09:06;97072.44;;;17.28;44.56
12973;BME280;6551;51.056;9.466;2023-04-25T09:11:34;97070.97;;;17.61;46.03
12973;BME280;6551;51.056;9.466;2023-04-25T09:14:22;97075.88;;;17.92;45.04
12973;BME280;6551;51.056;9.466;2023-04-25T09:17:09;97084.47;;;18.33;44.58
12973;BME280;6551;51.056;9.466;2023-04-25T09:19:36;97085.03;;;18.35;44.35
12973;BME280;6551;51.056;9.466;2023-04-25T09:22:05;97086.34;;;18.95;44.53
12973;BME280;6551;51.056;9.466;2023-04-25T09:24:40;97096.53;;;19.51;43.06
12973;BME280;6551;51.056;9.466;2023-04-25T09:27:12;97098.31;;;20.16;41.50
12973;BME280;6551;51.056;9.466;2023-04-25T09:29:40;97099.47;;;20.48;41.12
12973;BME280;6551;51.056;9.466;2023-04-25T09:32:23;97101.09;;;20.49;40.88
12973;BME280;6551;51.056;9.466;2023-04-25T09:34:53;97101.78;;;20.40;40.31
12973;BME280;6551;51.056;9.466;2023-04-25T09:37:21;97105.19;;;20.46;42.93
12973;BME280;6551;51.056;9.466;2023-04-25T09:39:58;97104.25;;;20.18;41.28
12973;BME280;6551;51.056;9.466;2023-04-25T09:42:26;97108.00;;;19.61;40.75
12973;BME280;6551;51.056;9.466;2023-04-25T09:44:54;97105.16;;;19.53;44.23
12973;BME280;6551;51.056;9.466;2023-04-25T09:47:22;97117.25;;;19.08;42.53
12973;BME280;6551;51.056;9.466;2023-04-25T09:49:50;97123.88;;;17.85;42.88
12973;BME280;6551;51.056;9.466;2023-04-25T09:52:21;97129.84;;;17.77;46.79
12973;BME280;6551;51.056;9.466;2023-04-25T09:54:48;97130.19;;;17.61;46.89
12973;BME280;6551;51.056;9.466;2023-04-25T09:57:23;97126.16;;;17.53;47.26
12973;BME280;6551;51.056;9.466;2023-04-25T09:59:50;97140.75;;;17.37;49.47
12973;BME280;6551;51.056;9.466;2023-04-25T10:02:24;97133.50;;;17.27;48.21
12973;BME280;6551;51.056;9.466;2023-04-25T10:04:53;97133.88;;;17.01;47.16
12973;BME280;6551;51.056;9.466;2023-04-25T10:07:25;97130.63;;;17.04;48.14
12973;BME280;6551;51.056;9.466;2023-04-25T10:10:02;97143.31;;;16.88;47.36
12973;BME280;6551;51.056;9.466;2023-04-25T10:12:32;97148.97;;;16.61;45.65
12973;BME280;6551;51.056;9.466;2023-04-25T10:14:59;97147.63;;;16.74;47.65
12973;BME280;6551;51.056;9.466;2023-04-25T10:17:26;97150.84;;;16.61;49.47
12973;BME280;6551;51.056;9.466;2023-04-25T10:19:54;97157.03;;;16.81;46.91
12973;BME280;6551;51.056;9.466;2023-04-25T10:22:39;97150.84;;;16.41;44.98
12973;BME280;6551;51.056;9.466;2023-04-25T10:25:07;97160.81;;;16.70;48.73
12973;BME280;6551;51.056;9.466;2023-04-25T10:27:35;97161.06;;;16.84;46.80
12973;BME280;6551;51.056;9.466;2023-04-25T10:32:32;97167.75;;;16.91;46.38
12973;BME280;6551;51.056;9.466;2023-04-25T10:35:27;97168.88;;;16.90;44.78
12973;BME280;6551;51.056;9.466;2023-04-25T10:38:03;97170.75;;;16.60;42.43
12973;BME280;6551;51.056;9.466;2023-04-25T10:40:31;97167.50;;;16.32;40.67
12973;BME280;6551;51.056;9.466;2023-04-25T10:46:23;97167.38;;;17.48;41.29
12973;BME280;6551;51.056;9.466;2023-04-25T10:48:53;97169.09;;;17.93;40.89
12973;BME280;6551;51.056;9.466;2023-04-25T10:51:28;97164.91;;;18.21;39.57
12973;BME280;6551;51.056;9.466;2023-04-25T10:54:09;97164.88;;;18.26;39.95
12973;BME280;6551;51.056;9.466;2023-04-25T10:56:40;97165.97;;;18.20;41.64
12973;BME280;6551;51.056;9.466;2023-04-25T10:59:17;97156.94;;;18.01;39.38
12973;BME280;6551;51.056;9.466;2023-04-25T11:01:46;97172.06;;;17.92;39.28
12973;BME280;6551;51.056;9.466;2023-04-25T11:04:35;97166.03;;;18.10;44.03
12973;BME280;6551;51.056;9.466;2023-04-25T11:07:38;97172.78;;;17.53;38.62
12973;BME280;6551;51.056;9.466;2023-04-25T11:10:05;97181.22;;;17.91;40.66
12973;BME280;6551;51.056;9.466;2023-04-25T11:12:32;97172.16;;;17.67;40.21
12973;BME280;6551;51.056;9.466;2023-04-25T11:15:07;97172.56;;;17.99;41.49
12973;BME280;6551;51.056;9.466;2023-04-25T11:17:34;97169.84;;;18.04;40.49
12973;BME280;6551;51.056;9.466;2023-04-25T11:20:02;97174.56;;;18.22;42.97
12973;BME280;6551;51.056;9.466;2023-04-25T11:22:33;97185.66;;;18.21;43.45
12973;BME280;6551;51.056;9.466;2023-04-25T11:25:05;97187.03;;;17.59;41.56
12973;BME280;6551;51.056;9.466;2023-04-25T11:27:31;97198.34;;;17.56;43.76
12973;BME280;6551;51.056;9.466;2023-04-25T11:29:57;97194.94;;;16.95;40.09
12973;BME280;6551;51.056;9.466;2023-04-25T11:32:24;97189.56;;;16.75;44.59
12973;BME280;6551;51.056;9.466;2023-04-25T11:34:50;97199.78;;;16.93;46.13
12973;BME280;6551;51.056;9.466;2023-04-25T11:37:15;97199.47;;;17.15;47.07
12973;BME280;6551;51.056;9.466;2023-04-25T11:39:45;97198.38;;;17.26;44.70
12973;BME280;6551;51.056;9.466;2023-04-25T11:42:15;97190.28;;;17.31;42.03
12973;BME280;6551;51.056;9.466;2023-04-25T11:44:40;97200.03;;;16.96;39.54
12973;BME280;6551;51.056;9.466;2023-04-25T11:47:07;97184.75;;;16.77;42.11
12973;BME280;6551;51.056;9.466;2023-04-25T11:49:33;97197.06;;;17.08;46.52
12973;BME280;6551;51.056;9.466;2023-04-25T11:52:01;97192.50;;;17.09;42.63
12973;BME280;6551;51.056;9.466;2023-04-25T11:54:27;97195.44;;;17.02;43.23
12973;BME280;6551;51.056;9.466;2023-04-25T11:56:52;97209.19;;;17.06;41.65
12973;BME280;6551;51.056;9.466;2023-04-25T11:59:24;97208.13;;;16.86;41.12
12973;BME280;6551;51.056;9.466;2023-04-25T12:01:50;97198.16;;;16.87;41.44
12973;BME280;6551;51.056;9.466;2023-04-25T12:04:18;97204.63;;;16.86;42.13
12973;BME280;6551;51.056;9.466;2023-04-25T12:06:47;97202.47;;;16.88;43.60
12973;BME280;6551;51.056;9.466;2023-04-25T12:09:15;97201.91;;;16.51;40.13
12973;BME280;6551;51.056;9.466;2023-04-25T12:11:52;97219.91;;;16.50;44.45
12973;BME280;6551;51.056;9.466;2023-04-25T12:14:34;97216.41;;;16.50;44.13
12973;BME280;6551;51.056;9.466;2023-04-25T12:17:03;97221.47;;;16.31;43.56
12973;BME280;6551;51.056;9.466;2023-04-25T12:19:36;97221.72;;;16.24;44.67
12973;BME280;6551;51.056;9.466;2023-04-25T12:22:03;97218.91;;;15.74;42.79
12973;BME280;6551;51.056;9.466;2023-04-25T12:24:33;97225.22;;;15.53;41.95
12973;BME280;6551;51.056;9.466;2023-04-25T12:27:01;97223.88;;;15.50;42.07
12973;BME280;6551;51.056;9.466;2023-04-25T12:29:31;97229.72;;;14.42;42.04
12973;BME280;6551;51.056;9.466;2023-04-25T12:31:58;97236.56;;;14.06;43.51
12973;BME280;6551;51.056;9.466;2023-04-25T12:34:25;97244.72;;;13.94;44.16
12973;BME280;6551;51.056;9.466;2023-04-25T12:36:52;97256.28;;;13.57;44.04
12973;BME280;6551;51.056;9.466;2023-04-25T12:39:22;97261.78;;;13.28;43.60
12973;BME280;6551;51.056;9.466;2023-04-25T12:41:49;97246.53;;;13.29;44.97
12973;BME280;6551;51.056;9.466;2023-04-25T12:44:15;97243.66;;;13.52;45.15
12973;BME280;6551;51.056;9.466;2023-04-25T12:46:41;97251.13;;;13.72;45.10
12973;BME280;6551;51.056;9.466;2023-04-25T12:49:09;97245.78;;;14.15;46.14
12973;BME280;6551;51.056;9.466;2023-04-25T12:51:36;97250.13;;;14.21;44.97
12973;BME280;6551;51.056;9.466;2023-04-25T12:54:03;97246.44;;;14.05;44.19
12973;BME280;6551;51.056;9.466;2023-04-25T12:56:31;97243.16;;;13.98;44.78
12973;BME280;6551;51.056;9.466;2023-04-25T12:58:57;97249.47;;;13.87;44.57
12973;BME280;6551;51.056;9.466;2023-04-25T13:01:25;97245.97;;;13.65;44.89
12973;BME280;6551;51.056;9.466;2023-04-25T13:03:52;97244.69;;;12.96;44.38
12973;BME280;6551;51.056;9.466;2023-04-25T13:06:19;97241.34;;;13.06;46.26
12973;BME280;6551;51.056;9.466;2023-04-25T13:08:46;97239.91;;;13.15;46.59
12973;BME280;6551;51.056;9.466;2023-04-25T13:11:12;97239.75;;;13.21;47.05
12973;BME280;6551;51.056;9.466;2023-04-25T13:13:43;97231.38;;;13.34;45.19
12973;BME280;6551;51.056;9.466;2023-04-25T13:16:10;97238.88;;;13.54;45.82
12973;BME280;6551;51.056;9.466;2023-04-25T13:18:41;97237.28;;;13.36;44.88